createdAt,value
2019-01-21T00:01:54.293Z,75.20
2019-01-21T00:04:26.202Z,75.92
2019-01-21T00:06:57.609Z,75.57
2019-01-21T00:09:28.995Z,75.22
2019-01-21T00:12:00.466Z,75.11
2019-01-21T00:14:32.339Z,75.04
2019-01-21T00:17:04.117Z,75.34
2019-01-21T00:19:35.593Z,75.14
2019-01-21T00:22:06.982Z,74.90
2019-01-21T00:24:38.381Z,74.95
2019-01-21T00:27:09.791Z,75.43
2019-01-21T00:29:41.494Z,74.80
2019-01-21T00:32:12.996Z,74.80
2019-01-21T00:34:44.403Z,74.96
2019-01-21T00:37:15.900Z,75.36
2019-01-21T00:39:48.097Z,76.14
2019-01-21T00:42:19.515Z,76.16
2019-01-21T00:44:50.917Z,76.29
2019-01-21T00:47:29.583Z,77.20
2019-01-21T00:49:55.924Z,76.95
2019-01-21T00:52:27.345Z,76.33
2019-01-21T00:54:58.775Z,76.54
2019-01-21T00:57:30.171Z,76.35
2019-01-21T01:00:01.608Z,76.59
2019-01-21T01:02:33.063Z,77.46
2019-01-21T01:05:05.680Z,76.98
2019-01-21T01:07:37.267Z,77.13
2019-01-21T01:10:10.224Z,76.66
2019-01-21T01:12:41.631Z,76.87
2019-01-21T01:15:13.303Z,76.79
2019-01-21T01:17:44.779Z,77.39
2019-01-21T01:20:19.511Z,76.78
2019-01-21T01:22:51.885Z,76.60
2019-01-21T01:25:23.295Z,76.48
2019-01-21T01:27:54.702Z,76.28
2019-01-21T01:30:25.916Z,76.44
2019-01-21T01:32:57.174Z,76.80
2019-01-21T01:35:28.414Z,76.99
2019-01-21T01:37:59.606Z,77.06
2019-01-21T01:40:30.810Z,77.09
2019-01-21T01:43:02.499Z,77.19
2019-01-21T01:45:33.977Z,77.46
2019-01-21T01:48:06.023Z,77.50
2019-01-21T01:50:37.216Z,77.71
2019-01-21T01:53:08.449Z,77.06
2019-01-21T01:55:39.626Z,76.75
2019-01-21T01:58:10.834Z,76.98
2019-01-21T02:00:42.657Z,76.83
2019-01-21T02:03:13.869Z,76.98
2019-01-21T02:05:45.217Z,76.81
2019-01-21T02:08:16.783Z,76.62
2019-01-21T02:10:48.163Z,76.75
2019-01-21T02:13:19.397Z,76.50
2019-01-21T02:15:50.737Z,76.33
2019-01-21T02:18:21.933Z,76.28
2019-01-21T02:20:54.808Z,76.33
2019-01-21T02:23:31.904Z,76.35
2019-01-21T02:26:04.665Z,76.31
2019-01-21T02:29:18.560Z,76.26
2019-01-21T02:32:19.194Z,77.07
2019-01-21T02:35:46.714Z,76.59
2019-01-21T02:38:53.621Z,76.93
2019-01-21T02:41:48.012Z,76.86
2019-01-21T02:45:00.743Z,76.93
2019-01-21T02:47:46.578Z,76.88
2019-01-21T02:51:05.467Z,77.12
2019-01-21T02:54:01.867Z,76.83
2019-01-21T02:57:16.137Z,77.00
2019-01-21T03:00:19.634Z,76.79
2019-01-21T03:03:26.580Z,76.78
2019-01-21T03:06:21.850Z,77.42
2019-01-21T03:09:29.625Z,77.43
2019-01-21T03:12:24.015Z,77.21
2019-01-21T03:15:25.175Z,77.33
2019-01-21T03:18:38.829Z,77.24
2019-01-21T03:21:48.562Z,77.31
2019-01-21T03:25:08.672Z,77.34
2019-01-21T03:28:25.990Z,77.16
2019-01-21T03:31:42.879Z,77.54
2019-01-21T03:35:00.750Z,77.60
2019-01-21T03:38:24.883Z,77.35
2019-01-21T03:41:20.308Z,77.81
2019-01-21T03:44:17.171Z,77.73
2019-01-21T03:47:17.006Z,77.57
2019-01-21T03:50:41.747Z,77.50
2019-01-21T03:53:50.106Z,77.09
2019-01-21T03:56:47.482Z,77.02
2019-01-21T04:00:02.563Z,77.40
2019-01-21T04:03:20.673Z,77.05
2019-01-21T04:06:09.814Z,77.14
2019-01-21T04:09:11.702Z,77.18
2019-01-21T04:12:04.740Z,77.32
2019-01-21T04:15:22.417Z,76.88
2019-01-21T04:18:24.643Z,77.44
2019-01-21T04:21:29.105Z,77.60
2019-01-21T04:24:49.362Z,77.29
2019-01-21T04:27:34.277Z,77.08
2019-01-21T04:30:34.402Z,77.28
2019-01-21T04:33:29.825Z,77.15
2019-01-21T04:36:40.729Z,77.05
2019-01-21T04:39:23.568Z,77.19
2019-01-21T04:42:37.799Z,77.43
2019-01-21T04:45:55.558Z,77.58
2019-01-21T04:49:01.017Z,77.69
2019-01-21T04:51:59.414Z,77.60
2019-01-21T04:55:16.680Z,77.68
2019-01-21T04:58:01.993Z,77.49
2019-01-21T05:01:29.361Z,77.42
2019-01-21T05:05:06.232Z,77.16
2019-01-21T05:08:16.975Z,77.33
2019-01-21T05:11:21.662Z,77.29
2019-01-21T05:14:15.121Z,77.32
2019-01-21T05:17:24.713Z,77.16
2019-01-21T05:20:43.016Z,77.19
2019-01-21T05:23:51.884Z,77.09
2019-01-21T05:26:47.867Z,76.74
2019-01-21T05:29:50.579Z,76.65
2019-01-21T05:33:09.147Z,76.50
2019-01-21T05:36:16.036Z,76.82
2019-01-21T05:39:02.595Z,76.73
2019-01-21T05:41:43.635Z,76.80
2019-01-21T05:44:44.376Z,77.01
2019-01-21T05:47:36.583Z,76.98
2019-01-21T05:50:45.119Z,77.33
2019-01-21T05:53:55.101Z,77.55
2019-01-21T05:57:22.625Z,77.54
2019-01-21T06:00:23.866Z,77.57
2019-01-21T06:03:22.926Z,77.69
2019-01-21T06:06:23.337Z,77.63
2019-01-21T06:09:19.805Z,77.62
2019-01-21T06:12:18.234Z,77.56
2019-01-21T06:15:26.652Z,77.44
2019-01-21T06:18:34.832Z,77.58
2019-01-21T06:21:40.628Z,77.88
2019-01-21T06:24:35.353Z,77.69
2019-01-21T06:27:52.592Z,77.51
2019-01-21T06:31:07.996Z,77.27
2019-01-21T06:34:29.850Z,76.88
2019-01-21T06:38:11.239Z,76.74
2019-01-21T06:41:08.169Z,76.12
2019-01-21T06:44:06.335Z,77.18
2019-01-21T06:47:17.091Z,77.20
2019-01-21T06:50:37.464Z,76.99
2019-01-21T06:53:55.387Z,77.24
2019-01-21T06:57:01.697Z,76.56
2019-01-21T06:59:58.498Z,76.21
2019-01-21T07:03:18.002Z,76.58
2019-01-21T07:06:40.689Z,76.16
2019-01-21T07:09:55.963Z,76.05
2019-01-21T07:13:15.217Z,77.07
2019-01-21T07:16:20.351Z,76.45
2019-01-21T07:19:14.086Z,76.66
2019-01-21T07:22:02.116Z,76.39
2019-01-21T07:24:42.393Z,75.81
2019-01-21T07:28:13.465Z,74.51
2019-01-21T07:31:11.854Z,74.51
2019-01-21T07:34:18.545Z,74.85
2019-01-21T07:37:26.920Z,75.34
2019-01-21T07:40:38.204Z,75.61
2019-01-21T07:43:39.764Z,75.20
2019-01-21T07:46:50.624Z,74.47
2019-01-21T07:49:53.472Z,74.18
2019-01-21T07:53:05.337Z,76.75
2019-01-21T07:56:23.200Z,77.89
2019-01-21T07:59:22.118Z,77.81
2019-01-21T08:02:28.804Z,77.90
2019-01-21T08:05:33.729Z,77.90
2019-01-21T08:08:24.002Z,77.57
2019-01-21T08:11:32.390Z,77.12
2019-01-21T08:14:38.266Z,77.10
2019-01-21T08:18:05.965Z,77.01
2019-01-21T08:20:57.090Z,75.65
2019-01-21T08:24:01.174Z,74.77
2019-01-21T08:27:00.135Z,74.50
2019-01-21T08:30:07.809Z,74.64
2019-01-21T08:33:02.622Z,73.68
2019-01-21T08:36:32.962Z,74.23
2019-01-21T08:39:33.840Z,74.29
2019-01-21T08:42:36.958Z,74.30
2019-01-21T08:45:37.029Z,73.55
2019-01-21T08:48:50.748Z,73.54
2019-01-21T08:51:58.543Z,73.29
2019-01-21T08:55:31.968Z,72.82
2019-01-21T08:58:53.568Z,73.11
2019-01-21T09:01:48.767Z,73.10
2019-01-21T09:05:06.535Z,74.69
2019-01-21T09:08:18.879Z,74.26
2019-01-21T09:11:15.239Z,74.89
2019-01-21T09:14:34.054Z,75.15
2019-01-21T09:17:28.808Z,75.83
2019-01-21T09:20:29.058Z,75.60
2019-01-21T09:23:29.328Z,75.50
2019-01-21T09:26:37.008Z,75.22
2019-01-21T09:29:38.836Z,74.92
2019-01-21T09:32:46.839Z,75.00
2019-01-21T09:35:43.656Z,75.04
2019-01-21T09:39:02.611Z,75.16
2019-01-21T09:42:30.579Z,75.28
2019-01-21T09:45:33.448Z,75.31
2019-01-21T09:48:03.989Z,75.37
2019-01-21T09:50:35.995Z,75.12
2019-01-21T09:53:07.381Z,74.82
2019-01-21T09:55:39.895Z,74.92
2019-01-21T09:58:11.175Z,74.49
2019-01-21T10:00:43.119Z,74.39
2019-01-21T10:03:16.146Z,74.28
2019-01-21T10:05:48.885Z,74.44
2019-01-21T10:08:33.618Z,74.36
2019-01-21T10:11:42.393Z,73.90
2019-01-21T10:14:58.445Z,73.73
2019-01-21T10:17:43.630Z,73.72
2019-01-21T10:20:35.005Z,73.40
2019-01-21T10:23:28.706Z,73.43
2019-01-21T10:26:25.342Z,73.46
2019-01-21T10:29:19.091Z,73.29
2019-01-21T10:32:30.503Z,72.93
2019-01-21T10:35:43.937Z,72.67
2019-01-21T10:38:52.722Z,72.87
2019-01-21T10:42:08.793Z,72.62
2019-01-21T10:45:04.041Z,72.35
2019-01-21T10:47:44.210Z,71.99
2019-01-21T10:51:15.578Z,72.08
2019-01-21T10:54:25.709Z,72.08
2019-01-21T10:57:41.244Z,71.65
2019-01-21T11:01:09.932Z,71.72
2019-01-21T11:04:06.575Z,71.58
2019-01-21T11:07:08.256Z,71.45
2019-01-21T11:10:00.869Z,71.64
2019-01-21T11:13:05.710Z,71.34
2019-01-21T11:15:54.126Z,71.33
2019-01-21T11:19:10.720Z,71.33
2019-01-21T11:22:33.455Z,71.44
2019-01-21T11:25:21.124Z,70.96
2019-01-21T11:28:26.285Z,71.04
2019-01-21T11:31:19.139Z,71.22
2019-01-21T11:34:07.184Z,70.85
2019-01-21T11:36:52.384Z,70.59
2019-01-21T11:39:54.460Z,70.85
2019-01-21T11:43:04.945Z,70.90
2019-01-21T11:46:21.280Z,70.58
2019-01-21T11:49:13.299Z,70.89
2019-01-21T11:52:22.604Z,70.66
2019-01-21T11:55:10.791Z,70.66
2019-01-21T11:58:23.626Z,70.53
2019-01-21T12:01:37.056Z,70.99
2019-01-21T12:05:14.816Z,71.16
2019-01-21T12:08:24.513Z,71.75
2019-01-21T12:11:36.849Z,71.29
2019-01-21T12:14:49.699Z,72.13
2019-01-21T12:17:54.528Z,71.40
2019-01-21T12:20:53.081Z,70.85
2019-01-21T12:23:51.160Z,71.06
2019-01-21T12:27:02.997Z,71.14
2019-01-21T12:30:12.861Z,71.21
2019-01-21T12:33:36.627Z,71.15
2019-01-21T12:36:14.720Z,71.20
2019-01-21T12:39:07.260Z,70.67
2019-01-21T12:42:22.554Z,70.67
2019-01-21T12:45:18.137Z,70.56
2019-01-21T12:48:45.729Z,70.65
2019-01-21T12:51:51.998Z,71.03
2019-01-21T12:55:03.984Z,71.63
2019-01-21T12:58:25.854Z,71.02
2019-01-21T13:01:17.502Z,71.13
2019-01-21T13:04:12.549Z,70.84
2019-01-21T13:07:20.034Z,71.18
2019-01-21T13:10:23.129Z,70.23
2019-01-21T13:13:30.089Z,70.19
2019-01-21T13:16:35.069Z,70.16
2019-01-21T13:20:03.160Z,69.77
2019-01-21T13:23:09.146Z,69.86
2019-01-21T13:26:05.286Z,69.75
2019-01-21T13:29:19.857Z,70.08
2019-01-21T13:32:41.248Z,70.61
2019-01-21T13:35:46.971Z,70.16
2019-01-21T13:38:55.447Z,70.54
2019-01-21T13:42:25.880Z,70.70
2019-01-21T13:45:26.215Z,70.93
2019-01-21T13:48:36.736Z,70.71
2019-01-21T13:51:40.454Z,70.67
2019-01-21T13:54:45.449Z,71.18
2019-01-21T13:57:54.759Z,71.05
2019-01-21T14:01:13.298Z,71.17
2019-01-21T14:04:16.342Z,71.47
2019-01-21T14:07:19.951Z,71.32
2019-01-21T14:10:44.522Z,71.58
2019-01-21T14:13:52.169Z,71.39
2019-01-21T14:16:46.344Z,71.04
2019-01-21T14:19:54.348Z,71.07
2019-01-21T14:23:07.273Z,70.83
2019-01-21T14:26:24.845Z,70.56
2019-01-21T14:29:43.584Z,70.54
2019-01-21T14:32:57.057Z,70.53
2019-01-21T14:36:49.889Z,70.67
2019-01-21T14:40:07.314Z,70.46
2019-01-21T14:43:37.397Z,70.98
2019-01-21T14:46:45.921Z,71.00
2019-01-21T14:49:57.505Z,71.02
2019-01-21T14:53:08.887Z,71.24
2019-01-21T14:56:26.581Z,71.14
2019-01-21T14:59:15.189Z,71.66
2019-01-21T15:02:35.912Z,71.94
2019-01-21T15:05:45.033Z,72.34
2019-01-21T15:08:53.956Z,72.86
2019-01-21T15:12:02.590Z,72.32
2019-01-21T15:15:02.795Z,72.29
2019-01-21T15:18:00.574Z,72.81
2019-01-21T15:21:13.955Z,72.62
2019-01-21T15:24:24.209Z,72.67
2019-01-21T15:27:41.893Z,72.74
2019-01-21T15:31:02.587Z,72.94
2019-01-21T15:34:16.286Z,72.58
2019-01-21T15:37:45.059Z,72.47
2019-01-21T15:40:55.849Z,72.40
2019-01-21T15:43:54.896Z,73.33
2019-01-21T15:47:16.664Z,73.44
2019-01-21T15:50:46.094Z,73.30
2019-01-21T15:54:45.273Z,72.91
2019-01-21T15:57:53.885Z,72.64
2019-01-21T16:01:20.420Z,72.64
2019-01-21T16:04:42.731Z,73.52
2019-01-21T16:07:34.486Z,73.56
2019-01-21T16:10:55.965Z,74.23
2019-01-21T16:13:43.958Z,74.03
2019-01-21T16:17:10.664Z,73.64
2019-01-21T16:19:50.159Z,73.64
2019-01-21T16:22:50.359Z,73.67
2019-01-21T16:25:35.064Z,73.75
2019-01-21T16:28:30.245Z,73.84
2019-01-21T16:31:21.133Z,73.54
2019-01-21T16:34:38.328Z,73.23
2019-01-21T16:37:46.797Z,73.09
2019-01-21T16:41:07.284Z,73.09
2019-01-21T16:43:38.465Z,72.83
2019-01-21T16:46:09.719Z,72.94
2019-01-21T16:48:40.924Z,72.99
2019-01-21T16:51:20.298Z,72.71
2019-01-21T16:53:47.567Z,72.72
2019-01-21T16:56:18.777Z,72.66
2019-01-21T16:58:50.864Z,72.72
2019-01-21T17:01:22.752Z,72.91
2019-01-21T17:03:54.240Z,73.09
2019-01-21T17:06:25.482Z,73.79
2019-01-21T17:08:56.731Z,73.77
2019-01-21T17:11:27.930Z,73.48
2019-01-21T17:13:59.116Z,73.68
2019-01-21T17:16:30.360Z,73.71
2019-01-21T17:19:01.820Z,73.59
2019-01-21T17:21:33.027Z,73.69
2019-01-21T17:24:05.456Z,73.48
2019-01-21T17:26:37.613Z,73.23
2019-01-21T17:29:08.884Z,73.76
2019-01-21T17:31:41.828Z,73.62
2019-01-21T17:34:13.114Z,73.40
2019-01-21T17:36:44.465Z,73.38
2019-01-21T17:39:17.024Z,73.77
2019-01-21T17:41:56.546Z,73.37
2019-01-21T17:44:27.791Z,73.38
2019-01-21T17:46:59.692Z,73.42
2019-01-21T17:49:36.752Z,73.32
2019-01-21T17:52:08.135Z,73.69
2019-01-21T17:54:39.397Z,73.60
2019-01-21T17:57:12.100Z,73.75
2019-01-21T17:59:45.456Z,74.33
2019-01-21T18:02:16.844Z,74.41
2019-01-21T18:04:48.259Z,73.90
2019-01-21T18:07:19.537Z,74.66
2019-01-21T18:09:50.815Z,74.60
2019-01-21T18:12:22.631Z,74.94
2019-01-21T18:14:54.519Z,74.42
2019-01-21T18:17:25.688Z,74.09
2019-01-21T18:20:00.161Z,74.29
2019-01-21T18:22:49.207Z,74.33
2019-01-21T18:25:20.574Z,74.12
2019-01-21T18:27:51.883Z,74.28
2019-01-21T18:30:26.565Z,74.67
2019-01-21T18:32:57.784Z,74.33
2019-01-21T18:35:30.399Z,74.63
2019-01-21T18:38:03.304Z,74.24
2019-01-21T18:40:35.595Z,74.21
2019-01-21T18:43:09.511Z,74.33
2019-01-21T18:45:40.737Z,74.27
2019-01-21T18:48:12.500Z,74.09
2019-01-21T18:50:43.759Z,74.17
2019-01-21T18:53:15.486Z,74.53
2019-01-21T18:55:46.671Z,74.68
2019-01-21T18:58:17.879Z,74.40
2019-01-21T19:00:49.236Z,74.25
2019-01-21T19:03:20.375Z,73.89
2019-01-21T19:05:51.593Z,73.86
2019-01-21T19:08:22.866Z,73.68
2019-01-21T19:10:54.330Z,73.80
2019-01-21T19:13:25.559Z,73.60
2019-01-21T19:15:56.766Z,73.54
2019-01-21T19:18:28.059Z,73.84
2019-01-21T19:20:59.384Z,73.58
2019-01-21T19:23:30.560Z,73.66
2019-01-21T19:26:02.364Z,74.31
2019-01-21T19:28:33.884Z,74.35
2019-01-21T19:31:05.237Z,74.52
2019-01-21T19:33:36.595Z,74.55
2019-01-21T19:36:07.815Z,73.92
2019-01-21T19:38:42.743Z,73.71
2019-01-21T19:41:15.339Z,73.71
2019-01-21T19:43:46.506Z,73.85
2019-01-21T19:46:18.978Z,74.33
2019-01-21T19:48:51.970Z,74.25
2019-01-21T19:51:23.435Z,73.83
2019-01-21T19:53:55.291Z,73.85
2019-01-21T19:56:26.541Z,73.83
2019-01-21T19:58:57.824Z,74.18
2019-01-21T20:01:29.067Z,73.98
2019-01-21T20:04:00.383Z,74.26
2019-01-21T20:06:31.642Z,74.10
2019-01-21T20:09:02.923Z,74.26
2019-01-21T20:11:36.311Z,74.21
2019-01-21T20:14:07.681Z,74.14
2019-01-21T20:16:38.918Z,74.34
2019-01-21T20:19:10.214Z,74.34
2019-01-21T20:21:41.510Z,74.22
2019-01-21T20:24:12.682Z,74.46
2019-01-21T20:26:44.378Z,74.58
2019-01-21T20:29:17.523Z,75.00
2019-01-21T20:31:48.863Z,75.78
2019-01-21T20:34:21.345Z,76.00
2019-01-21T20:36:52.447Z,76.00
2019-01-21T20:39:23.838Z,75.33
2019-01-21T20:41:55.536Z,75.20
2019-01-21T20:44:26.811Z,75.61
2019-01-21T20:46:58.023Z,75.36
2019-01-21T20:49:29.274Z,75.62
2019-01-21T20:52:01.547Z,75.84
2019-01-21T20:54:32.755Z,75.83
2019-01-21T20:57:04.072Z,75.63
2019-01-21T20:59:35.320Z,75.70
2019-01-21T21:02:06.780Z,75.94
2019-01-21T21:04:42.292Z,76.68
2019-01-21T21:07:27.477Z,76.65
2019-01-21T21:10:11.483Z,76.47
2019-01-21T21:12:44.808Z,76.05
2019-01-21T21:15:22.697Z,75.55
2019-01-21T21:18:01.335Z,76.20
2019-01-21T21:20:43.192Z,76.19
2019-01-21T21:23:21.009Z,76.37
2019-01-21T21:26:05.578Z,76.54
2019-01-21T21:28:45.392Z,77.03
2019-01-21T21:31:18.565Z,76.33
2019-01-21T21:33:53.173Z,76.22
2019-01-21T21:36:29.675Z,76.89
2019-01-21T21:39:11.651Z,76.85
2019-01-21T21:41:49.693Z,76.77
2019-01-21T21:44:22.772Z,76.18
2019-01-21T21:47:02.936Z,75.99
2019-01-21T21:49:36.824Z,76.30
2019-01-21T21:52:08.373Z,76.16
2019-01-21T21:54:43.147Z,76.02
2019-01-21T21:57:19.045Z,76.20
2019-01-21T21:59:52.266Z,76.12
2019-01-21T22:02:27.747Z,76.93
2019-01-21T22:05:04.382Z,77.17
2019-01-21T22:07:38.880Z,77.51
2019-01-21T22:10:19.703Z,77.31
2019-01-21T22:12:51.457Z,77.18
2019-01-21T22:15:31.624Z,77.06
2019-01-21T22:18:15.679Z,77.25
2019-01-21T22:20:47.775Z,77.12
2019-01-21T22:23:20.454Z,76.66
2019-01-21T22:25:54.771Z,77.09
2019-01-21T22:28:25.970Z,76.93
2019-01-21T22:30:57.173Z,77.12
2019-01-21T22:33:28.383Z,76.56
2019-01-21T22:35:59.501Z,77.39
2019-01-21T22:38:30.681Z,77.48
2019-01-21T22:41:02.533Z,77.60
2019-01-21T22:43:33.773Z,77.32
2019-01-21T22:46:05.533Z,77.43
2019-01-21T22:48:36.777Z,77.23
2019-01-21T22:51:08.089Z,76.79
2019-01-21T22:53:39.733Z,77.26
2019-01-21T22:56:10.948Z,76.89
2019-01-21T22:58:42.283Z,77.24
2019-01-21T23:01:24.732Z,77.52
2019-01-21T23:03:56.832Z,77.52
2019-01-21T23:06:29.047Z,77.35
2019-01-21T23:09:00.122Z,77.33
2019-01-21T23:11:31.434Z,76.83
2019-01-21T23:14:04.443Z,76.95
2019-01-21T23:16:36.633Z,76.65
2019-01-21T23:19:07.857Z,76.62
2019-01-21T23:21:39.037Z,76.40
2019-01-21T23:24:10.221Z,76.96
2019-01-21T23:26:41.602Z,76.29
2019-01-21T23:29:13.931Z,76.72
2019-01-21T23:31:45.221Z,76.75
2019-01-21T23:34:16.484Z,76.73
2019-01-21T23:36:48.528Z,76.68
2019-01-21T23:39:19.916Z,76.73
2019-01-21T23:41:51.099Z,76.79
2019-01-21T23:44:22.846Z,76.79
2019-01-21T23:46:54.387Z,76.48
2019-01-21T23:49:25.556Z,76.79
2019-01-21T23:51:56.763Z,76.41
2019-01-21T23:54:27.980Z,76.98
2019-01-21T23:56:59.230Z,77.73
2019-01-21T23:59:30.922Z,77.32
